sensor_id;sensor_type;location;lat;lon;timestamp;P1;durP1;ratioP1;P2;durP2;ratioP2
17812;SDS011;9030;50.792;8.320;2023-05-14T00:00:44;17.67;;;11.67;;
17812;SDS011;9030;50.792;8.320;2023-05-14T00:03:12;13.50;;;11.77;;
17812;SDS011;9030;50.792;8.320;2023-05-14T00:05:38;14.53;;;12.30;;
17812;SDS011;9030;50.792;8.320;2023-05-14T00:08:05;16.93;;;12.90;;
17812;SDS011;9030;50.792;8.320;2023-05-14T00:10:32;15.33;;;12.60;;
17812;SDS011;9030;50.792;8.320;2023-05-14T00:12:59;16.13;;;11.33;;
17812;SDS011;9030;50.792;8.320;2023-05-14T00:15:27;13.43;;;10.93;;
17812;SDS011;9030;50.792;8.320;2023-05-14T00:17:54;14.23;;;11.47;;
17812;SDS011;9030;50.792;8.320;2023-05-14T00:20:21;18.10;;;11.13;;
17812;SDS011;9030;50.792;8.320;2023-05-14T00:22:48;14.20;;;12.70;;
17812;SDS011;9030;50.792;8.320;2023-05-14T00:25:14;16.53;;;13.53;;
17812;SDS011;9030;50.792;8.320;2023-05-14T00:27:41;17.67;;;12.13;;
17812;SDS011;9030;50.792;8.320;2023-05-14T00:30:08;13.33;;;11.93;;
17812;SDS011;9030;50.792;8.320;2023-05-14T00:32:36;20.13;;;12.13;;
17812;SDS011;9030;50.792;8.320;2023-05-14T00:35:03;15.50;;;11.43;;
17812;SDS011;9030;50.792;8.320;2023-05-14T00:37:31;18.53;;;13.00;;
17812;SDS011;9030;50.792;8.320;2023-05-14T00:39:57;17.27;;;12.33;;
17812;SDS011;9030;50.792;8.320;2023-05-14T00:42:24;18.43;;;12.87;;
17812;SDS011;9030;50.792;8.320;2023-05-14T00:44:51;16.70;;;13.10;;
17812;SDS011;9030;50.792;8.320;2023-05-14T00:47:18;15.10;;;12.27;;
17812;SDS011;9030;50.792;8.320;2023-05-14T00:49:46;18.67;;;11.90;;
17812;SDS011;9030;50.792;8.320;2023-05-14T00:52:13;13.50;;;11.13;;
17812;SDS011;9030;50.792;8.320;2023-05-14T00:54:41;19.17;;;12.77;;
17812;SDS011;9030;50.792;8.320;2023-05-14T00:57:09;17.87;;;13.17;;
17812;SDS011;9030;50.792;8.320;2023-05-14T00:59:36;15.37;;;11.73;;
17812;SDS011;9030;50.792;8.320;2023-05-14T01:02:05;14.77;;;12.37;;
17812;SDS011;9030;50.792;8.320;2023-05-14T01:04:32;17.17;;;12.20;;
17812;SDS011;9030;50.792;8.320;2023-05-14T01:07:03;16.37;;;12.73;;
17812;SDS011;9030;50.792;8.320;2023-05-14T01:09:38;15.57;;;12.43;;
17812;SDS011;9030;50.792;8.320;2023-05-14T01:12:10;17.03;;;13.00;;
17812;SDS011;9030;50.792;8.320;2023-05-14T01:14:46;15.13;;;12.40;;
17812;SDS011;9030;50.792;8.320;2023-05-14T01:17:19;18.90;;;12.87;;
17812;SDS011;9030;50.792;8.320;2023-05-14T01:19:47;13.80;;;12.10;;
17812;SDS011;9030;50.792;8.320;2023-05-14T01:22:17;16.50;;;13.23;;
17812;SDS011;9030;50.792;8.320;2023-05-14T01:24:44;16.17;;;12.10;;
17812;SDS011;9030;50.792;8.320;2023-05-14T01:27:13;17.93;;;12.13;;
17812;SDS011;9030;50.792;8.320;2023-05-14T01:29:45;19.80;;;11.00;;
17812;SDS011;9030;50.792;8.320;2023-05-14T01:32:18;14.90;;;11.67;;
17812;SDS011;9030;50.792;8.320;2023-05-14T01:34:48;15.37;;;10.60;;
17812;SDS011;9030;50.792;8.320;2023-05-14T01:37:18;14.13;;;12.50;;
17812;SDS011;9030;50.792;8.320;2023-05-14T01:39:46;14.20;;;10.93;;
17812;SDS011;9030;50.792;8.320;2023-05-14T01:42:15;15.37;;;11.10;;
17812;SDS011;9030;50.792;8.320;2023-05-14T01:44:42;18.00;;;12.27;;
17812;SDS011;9030;50.792;8.320;2023-05-14T01:47:09;17.70;;;12.20;;
17812;SDS011;9030;50.792;8.320;2023-05-14T01:49:35;19.80;;;14.20;;
17812;SDS011;9030;50.792;8.320;2023-05-14T01:52:02;18.03;;;13.93;;
17812;SDS011;9030;50.792;8.320;2023-05-14T01:54:31;15.90;;;12.67;;
17812;SDS011;9030;50.792;8.320;2023-05-14T01:56:57;14.10;;;11.23;;
17812;SDS011;9030;50.792;8.320;2023-05-14T01:59:24;16.00;;;10.87;;
17812;SDS011;9030;50.792;8.320;2023-05-14T02:01:53;23.27;;;11.07;;
17812;SDS011;9030;50.792;8.320;2023-05-14T02:04:20;15.23;;;10.37;;
17812;SDS011;9030;50.792;8.320;2023-05-14T02:06:46;13.90;;;11.43;;
17812;SDS011;9030;50.792;8.320;2023-05-14T02:09:13;13.00;;;10.63;;
17812;SDS011;9030;50.792;8.320;2023-05-14T02:11:41;14.47;;;11.47;;
17812;SDS011;9030;50.792;8.320;2023-05-14T02:14:08;15.27;;;11.37;;
17812;SDS011;9030;50.792;8.320;2023-05-14T02:16:35;14.20;;;11.10;;
17812;SDS011;9030;50.792;8.320;2023-05-14T02:19:02;14.37;;;10.53;;
17812;SDS011;9030;50.792;8.320;2023-05-14T02:21:29;13.30;;;10.83;;
17812;SDS011;9030;50.792;8.320;2023-05-14T02:23:56;14.03;;;12.43;;
17812;SDS011;9030;50.792;8.320;2023-05-14T02:26:22;14.77;;;12.23;;
17812;SDS011;9030;50.792;8.320;2023-05-14T02:28:52;14.23;;;11.93;;
17812;SDS011;9030;50.792;8.320;2023-05-14T02:31:18;23.10;;;14.30;;
17812;SDS011;9030;50.792;8.320;2023-05-14T02:33:45;17.93;;;14.10;;
17812;SDS011;9030;50.792;8.320;2023-05-14T02:36:12;13.87;;;11.83;;
17812;SDS011;9030;50.792;8.320;2023-05-14T02:38:38;14.43;;;11.43;;
17812;SDS011;9030;50.792;8.320;2023-05-14T02:41:05;20.00;;;12.20;;
17812;SDS011;9030;50.792;8.320;2023-05-14T02:43:32;14.73;;;12.57;;
17812;SDS011;9030;50.792;8.320;2023-05-14T02:46:00;14.40;;;12.67;;
17812;SDS011;9030;50.792;8.320;2023-05-14T02:48:27;15.53;;;13.70;;
17812;SDS011;9030;50.792;8.320;2023-05-14T02:50:53;16.63;;;14.23;;
17812;SDS011;9030;50.792;8.320;2023-05-14T02:53:20;20.57;;;14.47;;
17812;SDS011;9030;50.792;8.320;2023-05-14T02:55:47;15.30;;;13.77;;
17812;SDS011;9030;50.792;8.320;2023-05-14T02:58:13;16.07;;;13.30;;
17812;SDS011;9030;50.792;8.320;2023-05-14T03:00:40;23.87;;;15.93;;
17812;SDS011;9030;50.792;8.320;2023-05-14T03:03:08;17.33;;;13.97;;
17812;SDS011;9030;50.792;8.320;2023-05-14T03:05:35;18.17;;;14.17;;
17812;SDS011;9030;50.792;8.320;2023-05-14T03:08:02;16.20;;;12.83;;
17812;SDS011;9030;50.792;8.320;2023-05-14T03:10:29;16.73;;;13.67;;
17812;SDS011;9030;50.792;8.320;2023-05-14T03:12:56;14.67;;;13.17;;
17812;SDS011;9030;50.792;8.320;2023-05-14T03:15:23;14.67;;;12.80;;
17812;SDS011;9030;50.792;8.320;2023-05-14T03:17:50;15.10;;;12.77;;
17812;SDS011;9030;50.792;8.320;2023-05-14T03:20:18;17.00;;;14.60;;
17812;SDS011;9030;50.792;8.320;2023-05-14T03:22:45;16.37;;;13.87;;
17812;SDS011;9030;50.792;8.320;2023-05-14T03:25:12;18.10;;;13.93;;
17812;SDS011;9030;50.792;8.320;2023-05-14T03:27:38;17.20;;;15.40;;
17812;SDS011;9030;50.792;8.320;2023-05-14T03:30:06;17.27;;;15.47;;
17812;SDS011;9030;50.792;8.320;2023-05-14T03:32:33;16.03;;;14.40;;
17812;SDS011;9030;50.792;8.320;2023-05-14T03:35:00;17.30;;;13.93;;
17812;SDS011;9030;50.792;8.320;2023-05-14T03:37:28;14.20;;;12.67;;
17812;SDS011;9030;50.792;8.320;2023-05-14T03:39:54;15.03;;;13.17;;
17812;SDS011;9030;50.792;8.320;2023-05-14T03:42:21;13.50;;;12.07;;
17812;SDS011;9030;50.792;8.320;2023-05-14T03:44:48;22.67;;;12.80;;
17812;SDS011;9030;50.792;8.320;2023-05-14T03:47:14;15.67;;;12.90;;
17812;SDS011;9030;50.792;8.320;2023-05-14T03:49:41;16.10;;;14.40;;
17812;SDS011;9030;50.792;8.320;2023-05-14T03:52:08;15.83;;;14.27;;
17812;SDS011;9030;50.792;8.320;2023-05-14T03:54:36;17.33;;;15.53;;
17812;SDS011;9030;50.792;8.320;2023-05-14T03:57:05;16.40;;;14.67;;
17812;SDS011;9030;50.792;8.320;2023-05-14T03:59:32;18.70;;;16.03;;
17812;SDS011;9030;50.792;8.320;2023-05-14T04:01:58;21.63;;;17.60;;
17812;SDS011;9030;50.792;8.320;2023-05-14T04:04:25;19.30;;;16.27;;
17812;SDS011;9030;50.792;8.320;2023-05-14T04:06:52;23.13;;;19.03;;
17812;SDS011;9030;50.792;8.320;2023-05-14T04:09:19;20.53;;;18.67;;
17812;SDS011;9030;50.792;8.320;2023-05-14T04:11:47;17.13;;;15.03;;
17812;SDS011;9030;50.792;8.320;2023-05-14T04:14:14;19.30;;;15.33;;
17812;SDS011;9030;50.792;8.320;2023-05-14T04:16:40;16.03;;;14.30;;
17812;SDS011;9030;50.792;8.320;2023-05-14T04:19:07;18.70;;;16.67;;
17812;SDS011;9030;50.792;8.320;2023-05-14T04:21:34;15.73;;;14.13;;
17812;SDS011;9030;50.792;8.320;2023-05-14T04:24:00;16.97;;;14.97;;
17812;SDS011;9030;50.792;8.320;2023-05-14T04:26:27;17.13;;;15.40;;
17812;SDS011;9030;50.792;8.320;2023-05-14T04:28:55;18.93;;;16.93;;
17812;SDS011;9030;50.792;8.320;2023-05-14T04:31:25;17.10;;;15.03;;
17812;SDS011;9030;50.792;8.320;2023-05-14T04:33:52;15.33;;;13.80;;
17812;SDS011;9030;50.792;8.320;2023-05-14T04:36:18;15.93;;;12.67;;
17812;SDS011;9030;50.792;8.320;2023-05-14T04:38:45;15.13;;;12.73;;
17812;SDS011;9030;50.792;8.320;2023-05-14T04:41:12;13.23;;;11.13;;
17812;SDS011;9030;50.792;8.320;2023-05-14T04:43:38;13.03;;;10.97;;
17812;SDS011;9030;50.792;8.320;2023-05-14T04:46:06;18.30;;;15.00;;
17812;SDS011;9030;50.792;8.320;2023-05-14T04:48:33;18.77;;;16.87;;
17812;SDS011;9030;50.792;8.320;2023-05-14T04:51:00;22.57;;;15.80;;
17812;SDS011;9030;50.792;8.320;2023-05-14T04:53:27;22.70;;;15.80;;
17812;SDS011;9030;50.792;8.320;2023-05-14T04:55:53;15.73;;;14.03;;
17812;SDS011;9030;50.792;8.320;2023-05-14T04:58:20;19.80;;;15.13;;
17812;SDS011;9030;50.792;8.320;2023-05-14T05:00:48;17.30;;;14.63;;
17812;SDS011;9030;50.792;8.320;2023-05-14T05:03:16;16.37;;;12.83;;
17812;SDS011;9030;50.792;8.320;2023-05-14T05:05:43;14.63;;;10.57;;
17812;SDS011;9030;50.792;8.320;2023-05-14T05:08:09;17.87;;;10.67;;
17812;SDS011;9030;50.792;8.320;2023-05-14T05:10:36;18.37;;;10.63;;
17812;SDS011;9030;50.792;8.320;2023-05-14T05:13:03;13.47;;;11.13;;
17812;SDS011;9030;50.792;8.320;2023-05-14T05:15:30;15.03;;;11.93;;
17812;SDS011;9030;50.792;8.320;2023-05-14T05:17:56;13.37;;;11.83;;
17812;SDS011;9030;50.792;8.320;2023-05-14T05:20:25;13.73;;;11.60;;
17812;SDS011;9030;50.792;8.320;2023-05-14T05:22:52;14.80;;;11.10;;
17812;SDS011;9030;50.792;8.320;2023-05-14T05:25:19;15.77;;;11.10;;
17812;SDS011;9030;50.792;8.320;2023-05-14T05:27:45;18.10;;;11.33;;
17812;SDS011;9030;50.792;8.320;2023-05-14T05:30:12;14.75;;;11.65;;
17812;SDS011;9030;50.792;8.320;2023-05-14T05:32:39;13.30;;;10.95;;
17812;SDS011;9030;50.792;8.320;2023-05-14T05:35:06;13.40;;;11.32;;
17812;SDS011;9030;50.792;8.320;2023-05-14T05:37:35;13.23;;;10.20;;
17812;SDS011;9030;50.792;8.320;2023-05-14T05:40:02;11.82;;;9.85;;
17812;SDS011;9030;50.792;8.320;2023-05-14T05:42:29;10.88;;;8.75;;
17812;SDS011;9030;50.792;8.320;2023-05-14T05:44:56;13.07;;;9.80;;
17812;SDS011;9030;50.792;8.320;2023-05-14T05:47:23;13.43;;;10.60;;
17812;SDS011;9030;50.792;8.320;2023-05-14T05:49:49;11.32;;;9.70;;
17812;SDS011;9030;50.792;8.320;2023-05-14T05:52:18;11.80;;;10.25;;
17812;SDS011;9030;50.792;8.320;2023-05-14T05:54:46;11.57;;;10.23;;
17812;SDS011;9030;50.792;8.320;2023-05-14T05:57:13;11.35;;;9.00;;
17812;SDS011;9030;50.792;8.320;2023-05-14T05:59:39;13.38;;;9.55;;
17812;SDS011;9030;50.792;8.320;2023-05-14T06:02:06;12.75;;;9.20;;
17812;SDS011;9030;50.792;8.320;2023-05-14T06:04:33;12.13;;;9.20;;
17812;SDS011;9030;50.792;8.320;2023-05-14T06:07:00;14.68;;;9.43;;
17812;SDS011;9030;50.792;8.320;2023-05-14T06:09:27;12.52;;;9.43;;
17812;SDS011;9030;50.792;8.320;2023-05-14T06:11:55;14.63;;;9.48;;
17812;SDS011;9030;50.792;8.320;2023-05-14T06:14:22;12.48;;;9.30;;
17812;SDS011;9030;50.792;8.320;2023-05-14T06:16:49;12.20;;;9.23;;
17812;SDS011;9030;50.792;8.320;2023-05-14T06:19:16;12.10;;;9.38;;
17812;SDS011;9030;50.792;8.320;2023-05-14T06:21:43;11.52;;;9.93;;
17812;SDS011;9030;50.792;8.320;2023-05-14T06:24:10;11.90;;;9.85;;
17812;SDS011;9030;50.792;8.320;2023-05-14T06:26:37;12.65;;;8.70;;
17812;SDS011;9030;50.792;8.320;2023-05-14T06:29:05;14.43;;;9.32;;
17812;SDS011;9030;50.792;8.320;2023-05-14T06:31:32;11.55;;;8.20;;
17812;SDS011;9030;50.792;8.320;2023-05-14T06:33:59;11.07;;;8.60;;
17812;SDS011;9030;50.792;8.320;2023-05-14T06:36:26;13.23;;;7.93;;
17812;SDS011;9030;50.792;8.320;2023-05-14T06:38:53;12.43;;;9.38;;
17812;SDS011;9030;50.792;8.320;2023-05-14T06:41:19;13.18;;;8.57;;
17812;SDS011;9030;50.792;8.320;2023-05-14T06:43:46;13.38;;;8.63;;
17812;SDS011;9030;50.792;8.320;2023-05-14T06:46:17;9.73;;;8.05;;
17812;SDS011;9030;50.792;8.320;2023-05-14T06:48:44;11.30;;;7.93;;
17812;SDS011;9030;50.792;8.320;2023-05-14T06:51:11;11.98;;;7.97;;
17812;SDS011;9030;50.792;8.320;2023-05-14T06:53:38;11.48;;;7.65;;
17812;SDS011;9030;50.792;8.320;2023-05-14T06:56:06;11.77;;;8.20;;
17812;SDS011;9030;50.792;8.320;2023-05-14T06:58:33;9.65;;;6.82;;
17812;SDS011;9030;50.792;8.320;2023-05-14T07:00:59;11.55;;;8.02;;
17812;SDS011;9030;50.792;8.320;2023-05-14T07:03:28;9.30;;;7.05;;
17812;SDS011;9030;50.792;8.320;2023-05-14T07:05:56;9.30;;;7.00;;
17812;SDS011;9030;50.792;8.320;2023-05-14T07:08:25;7.95;;;6.18;;
17812;SDS011;9030;50.792;8.320;2023-05-14T07:10:52;8.05;;;6.53;;
17812;SDS011;9030;50.792;8.320;2023-05-14T07:13:19;9.70;;;6.72;;
17812;SDS011;9030;50.792;8.320;2023-05-14T07:15:46;10.48;;;7.00;;
17812;SDS011;9030;50.792;8.320;2023-05-14T07:18:17;10.00;;;6.10;;
17812;SDS011;9030;50.792;8.320;2023-05-14T07:20:45;9.13;;;6.10;;
17812;SDS011;9030;50.792;8.320;2023-05-14T07:23:12;8.57;;;6.20;;
17812;SDS011;9030;50.792;8.320;2023-05-14T07:25:39;9.82;;;6.68;;
17812;SDS011;9030;50.792;8.320;2023-05-14T07:28:05;8.55;;;5.95;;
17812;SDS011;9030;50.792;8.320;2023-05-14T07:30:32;8.00;;;5.85;;
17812;SDS011;9030;50.792;8.320;2023-05-14T07:32:59;8.25;;;5.80;;
17812;SDS011;9030;50.792;8.320;2023-05-14T07:35:26;11.30;;;6.38;;
17812;SDS011;9030;50.792;8.320;2023-05-14T07:37:54;9.48;;;6.82;;
17812;SDS011;9030;50.792;8.320;2023-05-14T07:40:21;8.63;;;6.00;;
17812;SDS011;9030;50.792;8.320;2023-05-14T07:42:49;10.10;;;6.68;;
17812;SDS011;9030;50.792;8.320;2023-05-14T07:45:16;7.45;;;5.20;;
17812;SDS011;9030;50.792;8.320;2023-05-14T07:47:42;8.15;;;5.40;;
17812;SDS011;9030;50.792;8.320;2023-05-14T07:50:13;6.95;;;5.03;;
17812;SDS011;9030;50.792;8.320;2023-05-14T07:52:42;9.38;;;5.53;;
17812;SDS011;9030;50.792;8.320;2023-05-14T07:55:15;8.88;;;5.43;;
17812;SDS011;9030;50.792;8.320;2023-05-14T07:57:42;7.93;;;5.63;;
17812;SDS011;9030;50.792;8.320;2023-05-14T08:00:10;7.38;;;4.72;;
17812;SDS011;9030;50.792;8.320;2023-05-14T08:02:37;8.57;;;5.10;;
17812;SDS011;9030;50.792;8.320;2023-05-14T08:05:07;7.50;;;5.07;;
17812;SDS011;9030;50.792;8.320;2023-05-14T08:07:34;10.32;;;5.00;;
17812;SDS011;9030;50.792;8.320;2023-05-14T08:10:01;7.45;;;5.00;;
17812;SDS011;9030;50.792;8.320;2023-05-14T08:12:30;7.50;;;5.13;;
17812;SDS011;9030;50.792;8.320;2023-05-14T08:14:57;8.43;;;4.60;;
17812;SDS011;9030;50.792;8.320;2023-05-14T08:17:26;6.50;;;4.68;;
17812;SDS011;9030;50.792;8.320;2023-05-14T08:20:01;6.40;;;4.80;;
17812;SDS011;9030;50.792;8.320;2023-05-14T08:22:36;9.15;;;5.80;;
17812;SDS011;9030;50.792;8.320;2023-05-14T08:25:14;7.82;;;4.25;;
17812;SDS011;9030;50.792;8.320;2023-05-14T08:27:42;9.35;;;4.40;;
17812;SDS011;9030;50.792;8.320;2023-05-14T08:30:10;6.47;;;4.47;;
17812;SDS011;9030;50.792;8.320;2023-05-14T08:32:37;9.65;;;4.65;;
17812;SDS011;9030;50.792;8.320;2023-05-14T08:35:09;6.18;;;3.97;;
17812;SDS011;9030;50.792;8.320;2023-05-14T08:37:37;6.78;;;4.30;;
17812;SDS011;9030;50.792;8.320;2023-05-14T08:40:04;6.15;;;3.30;;
17812;SDS011;9030;50.792;8.320;2023-05-14T08:42:32;7.18;;;4.28;;
17812;SDS011;9030;50.792;8.320;2023-05-14T08:45:03;6.93;;;4.85;;
17812;SDS011;9030;50.792;8.320;2023-05-14T08:47:35;8.70;;;3.63;;
17812;SDS011;9030;50.792;8.320;2023-05-14T08:50:05;5.50;;;3.17;;
17812;SDS011;9030;50.792;8.320;2023-05-14T08:52:36;4.97;;;3.30;;
17812;SDS011;9030;50.792;8.320;2023-05-14T08:55:05;4.70;;;3.40;;
17812;SDS011;9030;50.792;8.320;2023-05-14T09:00:24;6.30;;;3.35;;
17812;SDS011;9030;50.792;8.320;2023-05-14T09:02:51;4.65;;;2.67;;
17812;SDS011;9030;50.792;8.320;2023-05-14T09:05:19;4.88;;;3.33;;
17812;SDS011;9030;50.792;8.320;2023-05-14T09:07:47;3.97;;;2.47;;
17812;SDS011;9030;50.792;8.320;2023-05-14T09:10:14;6.22;;;3.22;;
17812;SDS011;9030;50.792;8.320;2023-05-14T09:12:41;5.20;;;2.63;;
17812;SDS011;9030;50.792;8.320;2023-05-14T09:15:08;6.38;;;2.80;;
17812;SDS011;9030;50.792;8.320;2023-05-14T09:17:37;6.70;;;2.67;;
17812;SDS011;9030;50.792;8.320;2023-05-14T09:20:07;4.60;;;2.53;;
17812;SDS011;9030;50.792;8.320;2023-05-14T09:22:41;6.32;;;3.50;;
17812;SDS011;9030;50.792;8.320;2023-05-14T09:25:10;6.13;;;3.53;;
17812;SDS011;9030;50.792;8.320;2023-05-14T09:27:44;3.83;;;2.70;;
17812;SDS011;9030;50.792;8.320;2023-05-14T09:30:20;4.43;;;2.80;;
17812;SDS011;9030;50.792;8.320;2023-05-14T09:33:05;3.80;;;2.38;;
17812;SDS011;9030;50.792;8.320;2023-05-14T09:35:37;2.88;;;2.03;;
17812;SDS011;9030;50.792;8.320;2023-05-14T09:38:13;4.35;;;2.65;;
17812;SDS011;9030;50.792;8.320;2023-05-14T09:40:43;3.85;;;2.20;;
17812;SDS011;9030;50.792;8.320;2023-05-14T09:43:13;4.10;;;2.55;;
17812;SDS011;9030;50.792;8.320;2023-05-14T09:45:41;3.58;;;2.17;;
17812;SDS011;9030;50.792;8.320;2023-05-14T09:48:26;2.75;;;1.90;;
17812;SDS011;9030;50.792;8.320;2023-05-14T09:50:53;4.70;;;2.40;;
17812;SDS011;9030;50.792;8.320;2023-05-14T09:53:28;2.83;;;1.70;;
17812;SDS011;9030;50.792;8.320;2023-05-14T09:55:55;4.32;;;2.10;;
17812;SDS011;9030;50.792;8.320;2023-05-14T09:58:30;4.47;;;2.45;;
17812;SDS011;9030;50.792;8.320;2023-05-14T10:01:02;5.07;;;2.65;;
17812;SDS011;9030;50.792;8.320;2023-05-14T10:03:50;3.30;;;2.13;;
17812;SDS011;9030;50.792;8.320;2023-05-14T10:06:22;5.53;;;2.78;;
17812;SDS011;9030;50.792;8.320;2023-05-14T10:08:53;3.38;;;2.10;;
17812;SDS011;9030;50.792;8.320;2023-05-14T10:11:27;4.20;;;2.40;;
17812;SDS011;9030;50.792;8.320;2023-05-14T10:13:57;6.80;;;3.33;;
17812;SDS011;9030;50.792;8.320;2023-05-14T10:16:32;4.35;;;2.55;;
17812;SDS011;9030;50.792;8.320;2023-05-14T10:19:07;5.20;;;2.50;;
17812;SDS011;9030;50.792;8.320;2023-05-14T10:21:52;3.42;;;2.28;;
17812;SDS011;9030;50.792;8.320;2023-05-14T10:24:41;2.97;;;1.95;;
17812;SDS011;9030;50.792;8.320;2023-05-14T10:27:30;3.90;;;1.95;;
17812;SDS011;9030;50.792;8.320;2023-05-14T10:30:15;4.15;;;2.10;;
17812;SDS011;9030;50.792;8.320;2023-05-14T10:38:27;3.53;;;2.03;;
17812;SDS011;9030;50.792;8.320;2023-05-14T10:41:12;5.88;;;2.55;;
17812;SDS011;9030;50.792;8.320;2023-05-14T10:43:43;3.47;;;2.28;;
17812;SDS011;9030;50.792;8.320;2023-05-14T10:46:23;6.07;;;2.20;;
17812;SDS011;9030;50.792;8.320;2023-05-14T10:48:50;3.42;;;2.45;;
17812;SDS011;9030;50.792;8.320;2023-05-14T10:51:19;6.53;;;2.88;;
17812;SDS011;9030;50.792;8.320;2023-05-14T10:53:57;4.88;;;2.65;;
17812;SDS011;9030;50.792;8.320;2023-05-14T10:56:26;4.38;;;2.72;;
17812;SDS011;9030;50.792;8.320;2023-05-14T10:58:56;6.13;;;3.08;;
17812;SDS011;9030;50.792;8.320;2023-05-14T11:01:25;4.60;;;2.75;;
17812;SDS011;9030;50.792;8.320;2023-05-14T11:03:53;6.00;;;3.00;;
17812;SDS011;9030;50.792;8.320;2023-05-14T11:06:25;3.20;;;1.85;;
17812;SDS011;9030;50.792;8.320;2023-05-14T11:08:52;4.63;;;2.28;;
17812;SDS011;9030;50.792;8.320;2023-05-14T11:11:20;3.60;;;2.22;;
17812;SDS011;9030;50.792;8.320;2023-05-14T11:13:47;4.28;;;2.47;;
17812;SDS011;9030;50.792;8.320;2023-05-14T11:16:16;4.20;;;2.10;;
17812;SDS011;9030;50.792;8.320;2023-05-14T11:18:43;6.03;;;2.53;;
17812;SDS011;9030;50.792;8.320;2023-05-14T11:21:10;5.18;;;2.20;;
17812;SDS011;9030;50.792;8.320;2023-05-14T11:23:38;5.72;;;2.42;;
17812;SDS011;9030;50.792;8.320;2023-05-14T11:26:05;3.50;;;2.30;;
17812;SDS011;9030;50.792;8.320;2023-05-14T11:28:32;4.60;;;2.42;;
17812;SDS011;9030;50.792;8.320;2023-05-14T11:30:59;2.72;;;1.88;;
17812;SDS011;9030;50.792;8.320;2023-05-14T11:33:26;4.55;;;2.20;;
17812;SDS011;9030;50.792;8.320;2023-05-14T11:35:53;5.65;;;2.53;;
17812;SDS011;9030;50.792;8.320;2023-05-14T11:38:20;4.07;;;2.58;;
17812;SDS011;9030;50.792;8.320;2023-05-14T11:40:51;3.70;;;2.17;;
17812;SDS011;9030;50.792;8.320;2023-05-14T11:43:19;8.55;;;3.42;;
17812;SDS011;9030;50.792;8.320;2023-05-14T11:45:48;5.18;;;2.80;;
17812;SDS011;9030;50.792;8.320;2023-05-14T11:48:16;4.50;;;2.63;;
17812;SDS011;9030;50.792;8.320;2023-05-14T11:50:43;4.65;;;2.75;;
17812;SDS011;9030;50.792;8.320;2023-05-14T11:53:14;3.78;;;2.47;;
17812;SDS011;9030;50.792;8.320;2023-05-14T11:55:42;2.78;;;2.13;;
17812;SDS011;9030;50.792;8.320;2023-05-14T11:58:10;7.95;;;3.03;;
17812;SDS011;9030;50.792;8.320;2023-05-14T12:00:43;2.75;;;2.10;;
17812;SDS011;9030;50.792;8.320;2023-05-14T12:03:10;5.18;;;2.90;;
17812;SDS011;9030;50.792;8.320;2023-05-14T12:05:37;6.60;;;2.97;;
17812;SDS011;9030;50.792;8.320;2023-05-14T12:08:18;3.78;;;2.50;;
17812;SDS011;9030;50.792;8.320;2023-05-14T12:10:45;3.42;;;2.28;;
17812;SDS011;9030;50.792;8.320;2023-05-14T12:13:15;5.78;;;2.65;;
17812;SDS011;9030;50.792;8.320;2023-05-14T12:15:43;3.70;;;2.35;;
17812;SDS011;9030;50.792;8.320;2023-05-14T12:18:11;3.80;;;2.10;;
17812;SDS011;9030;50.792;8.320;2023-05-14T12:20:38;3.78;;;2.10;;
17812;SDS011;9030;50.792;8.320;2023-05-14T12:23:08;3.55;;;2.40;;
17812;SDS011;9030;50.792;8.320;2023-05-14T12:25:36;8.38;;;2.90;;
17812;SDS011;9030;50.792;8.320;2023-05-14T12:28:12;9.13;;;2.58;;
17812;SDS011;9030;50.792;8.320;2023-05-14T12:30:41;5.15;;;2.70;;
17812;SDS011;9030;50.792;8.320;2023-05-14T12:33:08;4.00;;;2.70;;
17812;SDS011;9030;50.792;8.320;2023-05-14T12:35:35;5.20;;;3.25;;
17812;SDS011;9030;50.792;8.320;2023-05-14T12:38:02;4.68;;;2.78;;
17812;SDS011;9030;50.792;8.320;2023-05-14T12:40:29;5.30;;;2.83;;
17812;SDS011;9030;50.792;8.320;2023-05-14T12:42:55;5.88;;;3.40;;
17812;SDS011;9030;50.792;8.320;2023-05-14T12:45:22;7.50;;;3.35;;
17812;SDS011;9030;50.792;8.320;2023-05-14T12:47:50;3.83;;;2.95;;
17812;SDS011;9030;50.792;8.320;2023-05-14T12:50:17;4.30;;;2.60;;
17812;SDS011;9030;50.792;8.320;2023-05-14T12:52:45;3.60;;;2.40;;
17812;SDS011;9030;50.792;8.320;2023-05-14T12:55:11;3.85;;;2.20;;
17812;SDS011;9030;50.792;8.320;2023-05-14T12:57:38;4.60;;;2.55;;
17812;SDS011;9030;50.792;8.320;2023-05-14T13:00:06;6.13;;;3.17;;
17812;SDS011;9030;50.792;8.320;2023-05-14T13:02:35;3.78;;;2.53;;
17812;SDS011;9030;50.792;8.320;2023-05-14T13:05:03;7.43;;;2.47;;
17812;SDS011;9030;50.792;8.320;2023-05-14T13:07:30;5.15;;;2.45;;
17812;SDS011;9030;50.792;8.320;2023-05-14T13:09:57;4.38;;;2.90;;
17812;SDS011;9030;50.792;8.320;2023-05-14T13:12:24;3.97;;;2.63;;
17812;SDS011;9030;50.792;8.320;2023-05-14T13:14:51;4.15;;;2.70;;
17812;SDS011;9030;50.792;8.320;2023-05-14T13:17:17;3.17;;;2.30;;
17812;SDS011;9030;50.792;8.320;2023-05-14T13:19:44;6.63;;;2.97;;
17812;SDS011;9030;50.792;8.320;2023-05-14T13:22:12;6.88;;;2.38;;
17812;SDS011;9030;50.792;8.320;2023-05-14T13:24:41;4.28;;;2.38;;
17812;SDS011;9030;50.792;8.320;2023-05-14T13:27:07;3.60;;;2.58;;
17812;SDS011;9030;50.792;8.320;2023-05-14T13:29:34;5.13;;;2.70;;
17812;SDS011;9030;50.792;8.320;2023-05-14T13:32:01;6.22;;;2.40;;
17812;SDS011;9030;50.792;8.320;2023-05-14T13:34:28;4.28;;;2.60;;
17812;SDS011;9030;50.792;8.320;2023-05-14T13:36:55;4.07;;;2.13;;
17812;SDS011;9030;50.792;8.320;2023-05-14T13:39:23;4.05;;;2.20;;
17812;SDS011;9030;50.792;8.320;2023-05-14T13:41:51;3.72;;;2.88;;
17812;SDS011;9030;50.792;8.320;2023-05-14T13:44:19;7.25;;;2.83;;
17812;SDS011;9030;50.792;8.320;2023-05-14T13:46:46;5.13;;;2.53;;
17812;SDS011;9030;50.792;8.320;2023-05-14T13:49:13;8.65;;;2.63;;
17812;SDS011;9030;50.792;8.320;2023-05-14T13:51:40;5.95;;;2.47;;
17812;SDS011;9030;50.792;8.320;2023-05-14T13:54:07;3.85;;;2.10;;
17812;SDS011;9030;50.792;8.320;2023-05-14T13:56:35;4.38;;;2.20;;
17812;SDS011;9030;50.792;8.320;2023-05-14T13:59:02;6.28;;;2.70;;
17812;SDS011;9030;50.792;8.320;2023-05-14T14:01:29;3.78;;;2.97;;
17812;SDS011;9030;50.792;8.320;2023-05-14T14:03:55;2.97;;;1.92;;
17812;SDS011;9030;50.792;8.320;2023-05-14T14:06:22;4.15;;;2.13;;
17812;SDS011;9030;50.792;8.320;2023-05-14T14:08:51;3.78;;;1.92;;
17812;SDS011;9030;50.792;8.320;2023-05-14T14:11:17;5.82;;;2.50;;
17812;SDS011;9030;50.792;8.320;2023-05-14T14:13:46;3.83;;;2.47;;
17812;SDS011;9030;50.792;8.320;2023-05-14T14:16:12;3.80;;;2.53;;
17812;SDS011;9030;50.792;8.320;2023-05-14T14:18:39;5.28;;;2.95;;
17812;SDS011;9030;50.792;8.320;2023-05-14T14:21:07;7.30;;;4.93;;
17812;SDS011;9030;50.792;8.320;2023-05-14T14:23:34;6.57;;;2.83;;
17812;SDS011;9030;50.792;8.320;2023-05-14T14:26:00;5.22;;;2.45;;
17812;SDS011;9030;50.792;8.320;2023-05-14T14:28:27;5.90;;;2.83;;
17812;SDS011;9030;50.792;8.320;2023-05-14T14:30:56;4.63;;;2.35;;
17812;SDS011;9030;50.792;8.320;2023-05-14T14:33:23;5.00;;;2.72;;
17812;SDS011;9030;50.792;8.320;2023-05-14T14:35:49;4.78;;;2.22;;
17812;SDS011;9030;50.792;8.320;2023-05-14T14:38:16;8.20;;;2.30;;
17812;SDS011;9030;50.792;8.320;2023-05-14T14:40:43;3.33;;;1.85;;
17812;SDS011;9030;50.792;8.320;2023-05-14T14:43:11;3.40;;;1.73;;
17812;SDS011;9030;50.792;8.320;2023-05-14T14:45:37;3.20;;;1.77;;
17812;SDS011;9030;50.792;8.320;2023-05-14T14:48:24;2.45;;;1.80;;
17812;SDS011;9030;50.792;8.320;2023-05-14T14:50:52;6.22;;;2.13;;
17812;SDS011;9030;50.792;8.320;2023-05-14T14:53:20;4.22;;;1.92;;
17812;SDS011;9030;50.792;8.320;2023-05-14T14:55:48;4.55;;;2.22;;
17812;SDS011;9030;50.792;8.320;2023-05-14T14:58:16;3.97;;;2.10;;
17812;SDS011;9030;50.792;8.320;2023-05-14T15:00:44;3.90;;;2.17;;
17812;SDS011;9030;50.792;8.320;2023-05-14T15:03:11;3.38;;;2.08;;
17812;SDS011;9030;50.792;8.320;2023-05-14T15:05:40;3.67;;;2.08;;